Inicio METAR Ruta Wind Satelite

Informe Meteorológico

Fecha: 2020/09/22 22:26:16 Local
2020.09.23 03:26 UTC


Estado: VENCIDO
Operación:VFR
Riohacha / Almirante Padilla, Colombia (SKRH) 11-32N 072-56W 4M
2020.09.22 2000 UTC
Wind: from the NW (320 degrees) at 9 MPH (8 KT):0
Visibility: greater than 7 mile(s):0
Sky conditions: partly cloudy
Temperature: 87 F (31 C)
Heat index: 99.7 F (37.6 C):1
Dew Point: 78 F (26 C)
Relative Humidity: 74%
Pressure (altimeter): 29.74 in. Hg (1007 hPa)
ob: SKRH 222000Z 32008KT 9999 FEW015 SCT200 31/26 A2974
cycle: 20

SKRH 221900Z 34005KT 320V040 9999 FEW015 SCT200 31/26 A2976
SKRH 221800Z 34006KT 9999 FEW015 SCT200 31/26 A2978
SKRH 221700Z 33008KT 9999 FEW015 SCT200 31/26 A2981
SKRH 221500Z 36004KT 9999 SCT015 30/26 A2985
SKRH 221400Z 31004KT 9999 BKN015 29/25 A298